Boris Syromyatnikov — UCUF — position and weather

sailwx.info

Track history (hours):
 
Tides and Currents Weather Stations Pressure Air Temp Water Temp Dewpoint Dewpoint Depression Visibility Wind Speed Wind Dir Waves Ship Positions

Boris Syromyatnikov

Last reported at 2015-May-05 18:31 UTC. Time now 2015-May-05 19:19 UTC.
Position N 60°11' W 005°48'.

Length 120 m; beam 19 m.

Type: Fishing. MMSI: 273529800.

Date/timePositionNaut miles runAvg speedWind from/ knotsBaromVisibWave heightAir tempDewpointWater temp
2015-May-05 18:31N 60°11' W 005°48'5 4.4
2015-May-05 17:25N 60°08' W 005°56'3 3.0
2015-May-05 16:31N 60°11' W 005°57'3 3.1
2015-May-05 15:31N 60°12' W 006°03'3 3.3
2015-May-05 14:31N 60°14' W 006°08'1 0.9
2015-May-05 13:07N 60°13' W 006°06'1 1.5
2015-May-05 12:31N 60°13' W 006°05'6 2.9
2015-May-05 10:19N 60°12' W 005°52'3 3.3
2015-May-05 09:25N 60°11' W 005°46'3 3.7
2015-May-05 08:31N 60°11' W 005°39'3 2.7
2015-May-05 07:22N 60°09' W 005°44'3 3.5
2015-May-05 06:31N 60°11' W 005°39'3 3.1
2015-May-05 05:31N 60°08' W 005°42'4 3.7
2015-May-05 04:31N 60°07' W 005°49'2 1.7
2015-May-05 03:25N 60°06' W 005°46'4 3.8
2015-May-05 02:28N 60°07' W 005°39'3 3.3
2015-May-05 01:31N 60°08' W 005°33'4 3.6
2015-May-05 00:25N 60°10' W 005°26'7 7.7
2015-May-04 23:31N 60°07' W 005°38'7 6.7
2015-May-04 22:31N 60°05' W 005°51'2 1.8
2015-May-04 21:28N 60°04' W 005°48'3 2.8
2015-May-04 20:31N 60°04' W 005°43'3 3.1
2015-May-04 19:31N 60°05' W 005°36'3 2.8
2015-May-04 18:31N 60°07' W 005°33'2 1.6
2015-May-04 17:31N 60°06' W 005°36'4 4.0
2015-May-04 16:31N 60°04' W 005°42'3 2.8
2015-May-04 15:31N 60°04' W 005°36'4 3.5
2015-May-04 14:25N 60°07' W 005°31'4 4.1
2015-May-04 13:31N 60°05' W 005°37'3 3.4
2015-May-04 12:31N 60°05' W 005°44'4 4.2
2015-May-04 11:31N 60°05' W 005°52'5 4.5
2015-May-04 10:31N 60°05' W 006°01'5 4.7
2015-May-04 09:28N 60°07' W 006°11'5 4.8
2015-May-04 08:25N 60°07' W 006°21'3 2.9
2015-May-04 07:31N 60°07' W 006°26'3 3.0
2015-May-04 06:31N 60°06' W 006°21'5 4.0
2015-May-04 05:22N 60°10' W 006°19'5 4.5
2015-May-04 04:13N 60°15' W 006°14'3 3.9
2015-May-04 03:28N 60°14' W 006°08'2 2.1
2015-May-04 02:31N 60°13' W 006°11'3 2.9
2015-May-04 01:31N 60°13' W 006°17'3 3.0
2015-May-04 00:31N 60°13' W 006°23'4 4.3
2015-May-03 23:31N 60°13' W 006°31'3 2.6
2015-May-03 22:31N 60°11' W 006°28'4 3.9
2015-May-03 21:31N 60°07' W 006°28'3 3.2
2015-May-03 20:31N 60°06' W 006°22'3 3.4
2015-May-03 19:31N 60°04' W 006°16'3 3.5
2015-May-03 18:31N 60°03' W 006°09'3 3.3
2015-May-03 17:31N 60°03' W 006°03'6 5.9
2015-May-03 16:31N 60°05' W 006°14'5 5.1
2015-May-03 15:31N 60°05' W 006°24'5 4.7
2015-May-03 14:29N 60°07' W 006°33'0 0.0
2015-May-03 13:31N 60°07' W 006°33'3 3.1
2015-May-03 12:31N 60°06' W 006°27'4 3.7
2015-May-03 11:31N 60°05' W 006°20'4 3.5
2015-May-03 10:28N 60°04' W 006°13'3 2.6
2015-May-03 09:31N 60°04' W 006°08'5 5.4
2015-May-03 08:31N 60°06' W 006°19'4 3.6
2015-May-03 07:31N 60°06' W 006°26'3 2.6
2015-May-03 06:31N 60°05' W 006°21'3 3.5
2015-May-03 05:31N 60°04' W 006°15'4 3.9
2015-May-03 04:31N 60°03' W 006°07'4 4.0
2015-May-03 03:31N 60°04' W 005°59'4 3.8
2015-May-03 02:31N 60°04' W 005°51'1 1.2
2015-May-03 01:22N 60°05' W 005°50'6 7.4
2015-May-03 00:31N 60°03' W 006°02'1 1.1
2015-May-02 23:31N 60°04' W 006°02'4 4.1
2015-May-02 22:31N 60°04' W 006°11'4 4.1
2015-May-02 21:31N 60°05' W 006°19'4 4.3
2015-May-02 20:31N 60°06' W 006°27'4 4.2
2015-May-02 19:31N 60°07' W 006°35'4 3.8
2015-May-02 18:31N 60°09' W 006°41'4 3.6
2015-May-02 17:31N 60°11' W 006°48'1 0.9
2015-May-02 16:31N 60°11' W 006°49'3 3.1
2015-May-02 15:25N 60°09' W 006°44'4 3.8
2015-May-02 14:28N 60°08' W 006°37'3 3.7
2015-May-02 13:31N 60°07' W 006°31'3 3.4
2015-May-02 12:31N 60°06' W 006°24'1 0.6
2015-May-02 11:31N 60°05' W 006°23'2 2.1
2015-May-02 10:31N 60°04' W 006°20'3 3.3
2015-May-02 09:31N 60°05' W 006°26'4 3.6
2015-May-02 08:31N 60°07' W 006°33'4 4.1
2015-May-02 07:31N 60°09' W 006°40'3 2.9
2015-May-02 06:31N 60°10' W 006°45'9 8.6
2015-May-02 05:31N 60°05' W 006°31'1 1.0
2015-May-02 04:28N 60°06' W 006°30'12 3.7
2015-May-02 01:22N 60°08' W 006°54'119 3.3
2015-Apr-30 13:26N 62°07' W 006°44'0 0.0
2015-Apr-30 12:08N 62°07' W 006°44'0 0.0
2015-Apr-30 11:14N 62°07' W 006°44'0 0.0
2015-Apr-30 09:29N 62°07' W 006°44'0 0.0
2015-Apr-30 08:05N 62°07' W 006°44'0 0.0
2015-Apr-29 20:08N 62°07' W 006°44'0 0.0
2015-Apr-29 18:29N 62°07' W 006°44'0 0.0
2015-Apr-29 17:17N 62°07' W 006°44'0 0.0
2015-Apr-29 16:29N 62°07' W 006°44'0 0.0
2015-Apr-29 15:29N 62°07' W 006°44'0 0.0
2015-Apr-29 14:20N 62°07' W 006°44'0 0.0
2015-Apr-29 13:32N 62°07' W 006°44'0 0.0
2015-Apr-28 19:31N 62°07' W 006°44'0 0.0
2015-Apr-28 17:28N 62°07' W 006°44'0 0.0
2015-Apr-28 16:28N 62°07' W 006°44'0 0.0
2015-Apr-28 15:04N 62°07' W 006°44'0 0.0
2015-Apr-28 14:31N 62°07' W 006°44'0 0.0
2015-Apr-28 12:28N 62°07' W 006°44'0 0.0
2015-Apr-28 03:13N 62°07' W 006°44'0 0.0
2015-Apr-26 23:06N 62°07' W 006°44'0 0.0
2015-Apr-26 16:09N 62°07' W 006°44'0 0.0
2015-Apr-26 08:33N 62°07' W 006°44'0 0.0
2015-Apr-26 07:33N 62°07' W 006°44'2 2.1
2015-Apr-26 06:32N 62°05' W 006°45'8 7.7
2015-Apr-26 05:32N 61°57' W 006°42'5 4.3
2015-Apr-26 04:21N 62°02' W 006°43'2 2.6
2015-Apr-26 03:31N 62°00' W 006°43'3 2.6
2015-Apr-26 02:21N 61°57' W 006°42'2 2.0
2015-Apr-26 01:28N 61°56' W 006°40'3 2.6
2015-Apr-26 00:24N 61°58' W 006°42'  
Track history (hours):
 
Tides and Currents Weather Stations Pressure Air Temp Water Temp Dewpoint Dewpoint Depression Visibility Wind Speed Wind Dir Waves Ship Positions

Boris Syromyatnikov

Last reported at 2015-May-05 18:31 UTC. Time now 2015-May-05 19:19 UTC.
Position N 60°11' W 005°48'.

Length 120 m; beam 19 m.

Type: Fishing. MMSI: 273529800.

Date/timePositionNaut miles runAvg speedWind from/ knotsBaromVisibWave heightAir tempDewpointWater temp
2015-May-05 18:31N 60°11' W 005°48'5 4.4
2015-May-05 17:25N 60°08' W 005°56'3 3.0
2015-May-05 16:31N 60°11' W 005°57'3 3.1
2015-May-05 15:31N 60°12' W 006°03'3 3.3
2015-May-05 14:31N 60°14' W 006°08'1 0.9
2015-May-05 13:07N 60°13' W 006°06'1 1.5
2015-May-05 12:31N 60°13' W 006°05'6 2.9
2015-May-05 10:19N 60°12' W 005°52'3 3.3
2015-May-05 09:25N 60°11' W 005°46'3 3.7
2015-May-05 08:31N 60°11' W 005°39'3 2.7
2015-May-05 07:22N 60°09' W 005°44'3 3.5
2015-May-05 06:31N 60°11' W 005°39'3 3.1
2015-May-05 05:31N 60°08' W 005°42'4 3.7
2015-May-05 04:31N 60°07' W 005°49'2 1.7
2015-May-05 03:25N 60°06' W 005°46'4 3.8
2015-May-05 02:28N 60°07' W 005°39'3 3.3
2015-May-05 01:31N 60°08' W 005°33'4 3.6
2015-May-05 00:25N 60°10' W 005°26'7 7.7
2015-May-04 23:31N 60°07' W 005°38'7 6.7
2015-May-04 22:31N 60°05' W 005°51'2 1.8
2015-May-04 21:28N 60°04' W 005°48'3 2.8
2015-May-04 20:31N 60°04' W 005°43'3 3.1
2015-May-04 19:31N 60°05' W 005°36'3 2.8
2015-May-04 18:31N 60°07' W 005°33'2 1.6
2015-May-04 17:31N 60°06' W 005°36'4 4.0
2015-May-04 16:31N 60°04' W 005°42'3 2.8
2015-May-04 15:31N 60°04' W 005°36'4 3.5
2015-May-04 14:25N 60°07' W 005°31'4 4.1
2015-May-04 13:31N 60°05' W 005°37'3 3.4
2015-May-04 12:31N 60°05' W 005°44'4 4.2
2015-May-04 11:31N 60°05' W 005°52'5 4.5
2015-May-04 10:31N 60°05' W 006°01'5 4.7
2015-May-04 09:28N 60°07' W 006°11'5 4.8
2015-May-04 08:25N 60°07' W 006°21'3 2.9
2015-May-04 07:31N 60°07' W 006°26'3 3.0
2015-May-04 06:31N 60°06' W 006°21'5 4.0
2015-May-04 05:22N 60°10' W 006°19'5 4.5
2015-May-04 04:13N 60°15' W 006°14'3 3.9
2015-May-04 03:28N 60°14' W 006°08'2 2.1
2015-May-04 02:31N 60°13' W 006°11'3 2.9
2015-May-04 01:31N 60°13' W 006°17'3 3.0
2015-May-04 00:31N 60°13' W 006°23'4 4.3
2015-May-03 23:31N 60°13' W 006°31'3 2.6
2015-May-03 22:31N 60°11' W 006°28'4 3.9
2015-May-03 21:31N 60°07' W 006°28'3 3.2
2015-May-03 20:31N 60°06' W 006°22'3 3.4
2015-May-03 19:31N 60°04' W 006°16'3 3.5
2015-May-03 18:31N 60°03' W 006°09'3 3.3
2015-May-03 17:31N 60°03' W 006°03'6 5.9
2015-May-03 16:31N 60°05' W 006°14'5 5.1
2015-May-03 15:31N 60°05' W 006°24'5 4.7
2015-May-03 14:29N 60°07' W 006°33'0 0.0
2015-May-03 13:31N 60°07' W 006°33'3 3.1
2015-May-03 12:31N 60°06' W 006°27'4 3.7
2015-May-03 11:31N 60°05' W 006°20'4 3.5
2015-May-03 10:28N 60°04' W 006°13'3 2.6
2015-May-03 09:31N 60°04' W 006°08'5 5.4
2015-May-03 08:31N 60°06' W 006°19'4 3.6
2015-May-03 07:31N 60°06' W 006°26'3 2.6
2015-May-03 06:31N 60°05' W 006°21'3 3.5
2015-May-03 05:31N 60°04' W 006°15'4 3.9
2015-May-03 04:31N 60°03' W 006°07'4 4.0
2015-May-03 03:31N 60°04' W 005°59'4 3.8
2015-May-03 02:31N 60°04' W 005°51'1 1.2
2015-May-03 01:22N 60°05' W 005°50'6 7.4
2015-May-03 00:31N 60°03' W 006°02'1 1.1
2015-May-02 23:31N 60°04' W 006°02'4 4.1
2015-May-02 22:31N 60°04' W 006°11'4 4.1
2015-May-02 21:31N 60°05' W 006°19'4 4.3
2015-May-02 20:31N 60°06' W 006°27'4 4.2
2015-May-02 19:31N 60°07' W 006°35'4 3.8
2015-May-02 18:31N 60°09' W 006°41'4 3.6
2015-May-02 17:31N 60°11' W 006°48'1 0.9
2015-May-02 16:31N 60°11' W 006°49'3 3.1
2015-May-02 15:25N 60°09' W 006°44'4 3.8
2015-May-02 14:28N 60°08' W 006°37'3 3.7
2015-May-02 13:31N 60°07' W 006°31'3 3.4
2015-May-02 12:31N 60°06' W 006°24'1 0.6
2015-May-02 11:31N 60°05' W 006°23'2 2.1
2015-May-02 10:31N 60°04' W 006°20'3 3.3
2015-May-02 09:31N 60°05' W 006°26'4 3.6
2015-May-02 08:31N 60°07' W 006°33'4 4.1
2015-May-02 07:31N 60°09' W 006°40'3 2.9
2015-May-02 06:31N 60°10' W 006°45'9 8.6
2015-May-02 05:31N 60°05' W 006°31'1 1.0
2015-May-02 04:28N 60°06' W 006°30'12 3.7
2015-May-02 01:22N 60°08' W 006°54'119 3.3
2015-Apr-30 13:26N 62°07' W 006°44'0 0.0
2015-Apr-30 12:08N 62°07' W 006°44'0 0.0
2015-Apr-30 11:14N 62°07' W 006°44'0 0.0
2015-Apr-30 09:29N 62°07' W 006°44'0 0.0
2015-Apr-30 08:05N 62°07' W 006°44'0 0.0
2015-Apr-29 20:08N 62°07' W 006°44'0 0.0
2015-Apr-29 18:29N 62°07' W 006°44'0 0.0
2015-Apr-29 17:17N 62°07' W 006°44'0 0.0
2015-Apr-29 16:29N 62°07' W 006°44'0 0.0
2015-Apr-29 15:29N 62°07' W 006°44'0 0.0
2015-Apr-29 14:20N 62°07' W 006°44'0 0.0
2015-Apr-29 13:32N 62°07' W 006°44'0 0.0
2015-Apr-28 19:31N 62°07' W 006°44'0 0.0
2015-Apr-28 17:28N 62°07' W 006°44'0 0.0
2015-Apr-28 16:28N 62°07' W 006°44'0 0.0
2015-Apr-28 15:04N 62°07' W 006°44'0 0.0
2015-Apr-28 14:31N 62°07' W 006°44'0 0.0
2015-Apr-28 12:28N 62°07' W 006°44'0 0.0
2015-Apr-28 03:13N 62°07' W 006°44'0 0.0
2015-Apr-26 23:06N 62°07' W 006°44'0 0.0
2015-Apr-26 16:09N 62°07' W 006°44'0 0.0
2015-Apr-26 08:33N 62°07' W 006°44'0 0.0
2015-Apr-26 07:33N 62°07' W 006°44'2 2.1
2015-Apr-26 06:32N 62°05' W 006°45'8 7.7
2015-Apr-26 05:32N 61°57' W 006°42'5 4.3
2015-Apr-26 04:21N 62°02' W 006°43'2 2.6
2015-Apr-26 03:31N 62°00' W 006°43'3 2.6
2015-Apr-26 02:21N 61°57' W 006°42'2 2.0
2015-Apr-26 01:28N 61°56' W 006°40'3 2.6
2015-Apr-26 00:24N 61°58' W 006°42'  

Dump ship's entire track history